createdAt,value
2022-09-23T00:01:16.107Z,99056.69
2022-09-23T00:03:47.308Z,99060.09
2022-09-23T00:06:23.343Z,99055.13
2022-09-23T00:08:50.632Z,99053.50
2022-09-23T00:11:23.459Z,99052.50
2022-09-23T00:13:53.332Z,99052.47
2022-09-23T00:16:33.495Z,99059.06
2022-09-23T00:19:02.144Z,99053.19
2022-09-23T00:21:29.393Z,99048.63
2022-09-23T00:23:56.349Z,99049.38
2022-09-23T00:26:23.831Z,99052.56
2022-09-23T00:28:50.640Z,99050.97
2022-09-23T00:31:23.629Z,99054.59
2022-09-23T00:34:01.809Z,99048.66
2022-09-23T00:36:29.841Z,99051.06
2022-09-23T00:38:57.322Z,99045.88
2022-09-23T00:41:24.714Z,99035.88
2022-09-23T00:43:59.375Z,99039.69
2022-09-23T00:46:32.759Z,99030.09
2022-09-23T00:49:12.716Z,99033.66
2022-09-23T00:51:48.999Z,99030.66
2022-09-23T00:54:16.731Z,99028.03
2022-09-23T00:56:43.643Z,99023.06
2022-09-23T00:59:10.889Z,99024.66
2022-09-23T01:01:39.032Z,99015.69
2022-09-23T01:04:07.086Z,99021.28
2022-09-23T01:06:33.825Z,99022.69
2022-09-23T01:09:00.670Z,99019.09
2022-09-23T01:11:45.730Z,99017.28
2022-09-23T01:14:34.444Z,99014.47
2022-09-23T01:17:19.762Z,99017.88
2022-09-23T01:19:57.886Z,99015.84
2022-09-23T01:22:27.083Z,99017.44
2022-09-23T01:25:13.735Z,99020.59
2022-09-23T01:27:59.133Z,99018.34
2022-09-23T01:30:37.780Z,99015.13
2022-09-23T01:33:18.755Z,99017.94
2022-09-23T01:36:09.626Z,99017.38
2022-09-23T01:38:44.874Z,99015.56
2022-09-23T01:41:40.609Z,99019.38
2022-09-23T01:44:13.456Z,99015.34
2022-09-23T01:47:01.409Z,99017.09
2022-09-23T01:49:35.733Z,99011.03
2022-09-23T01:52:17.718Z,99016.19
2022-09-23T01:54:50.684Z,99018.13
2022-09-23T01:57:35.324Z,99007.56
2022-09-23T02:00:23.581Z,99004.16
2022-09-23T02:02:58.263Z,99009.19
2022-09-23T02:05:33.303Z,99006.47
2022-09-23T02:08:11.902Z,99006.06
2022-09-23T02:10:44.246Z,98997.66
2022-09-23T02:13:20.740Z,98998.00
2022-09-23T02:15:56.211Z,99002.84
2022-09-23T02:18:33.484Z,98998.69
2022-09-23T02:21:04.722Z,98997.88
2022-09-23T02:23:42.752Z,98993.72
2022-09-23T02:26:45.839Z,98994.28
2022-09-23T02:29:33.850Z,98992.66
2022-09-23T02:32:15.958Z,98996.03
2022-09-23T02:35:04.189Z,98997.44
2022-09-23T02:37:51.407Z,98994.47
2022-09-23T02:40:47.270Z,98995.63
2022-09-23T02:43:41.188Z,98995.81
2022-09-23T02:46:08.225Z,98994.06
2022-09-23T02:48:56.956Z,98985.25
2022-09-23T02:51:29.300Z,98991.88
2022-09-23T02:53:58.506Z,98987.63
2022-09-23T02:56:25.228Z,98992.22
2022-09-23T02:58:54.384Z,98990.44
2022-09-23T03:01:45.263Z,98986.06
2022-09-23T03:04:33.872Z,98983.13
2022-09-23T03:07:17.616Z,98986.81
2022-09-23T03:09:52.446Z,98980.00
2022-09-23T03:12:53.067Z,98991.06
2022-09-23T03:15:43.080Z,98984.53
2022-09-23T03:18:18.202Z,98981.66
2022-09-23T03:21:02.184Z,98987.16
2022-09-23T03:23:38.001Z,98984.94
2022-09-23T03:26:13.583Z,98985.63
2022-09-23T03:28:43.871Z,98979.16
2022-09-23T03:31:13.098Z,98980.09
2022-09-23T03:33:43.530Z,98976.84
2022-09-23T03:36:43.819Z,98971.31
2022-09-23T03:39:15.159Z,98967.34
2022-09-23T03:41:55.177Z,98965.97
2022-09-23T03:44:21.995Z,98958.63
2022-09-23T03:46:51.721Z,98960.00
2022-09-23T03:49:30.194Z,98959.88
2022-09-23T03:51:56.943Z,98962.78
2022-09-23T03:54:23.457Z,98958.09
2022-09-23T03:56:49.915Z,98958.34
2022-09-23T03:59:16.836Z,98963.63
2022-09-23T04:01:44.380Z,98962.16
2022-09-23T04:04:10.902Z,98960.16
2022-09-23T04:06:37.593Z,98954.69
2022-09-23T04:09:04.486Z,98958.41
2022-09-23T04:11:31.420Z,98953.19
2022-09-23T04:14:00.112Z,98955.09
2022-09-23T04:16:27.333Z,98955.44
2022-09-23T04:18:54.215Z,98950.66
2022-09-23T04:21:20.980Z,98952.28
2022-09-23T04:23:48.159Z,98952.41
2022-09-23T04:26:15.359Z,98938.47
2022-09-23T04:28:42.154Z,98945.34
2022-09-23T04:31:10.052Z,98939.03
2022-09-23T04:33:37.765Z,98945.13
2022-09-23T04:36:05.194Z,98935.19
2022-09-23T04:38:31.892Z,98937.19
2022-09-23T04:40:59.050Z,98937.34
2022-09-23T04:43:26.111Z,98940.88
2022-09-23T04:46:01.454Z,98935.88
2022-09-23T04:48:29.400Z,98937.25
2022-09-23T04:51:03.819Z,98931.28
2022-09-23T04:53:31.183Z,98931.78
2022-09-23T04:56:02.694Z,98937.75
2022-09-23T04:58:29.677Z,98930.03
2022-09-23T05:01:01.713Z,98935.22
2022-09-23T05:03:54.055Z,98936.19
2022-09-23T05:06:21.605Z,98935.88
2022-09-23T05:08:54.823Z,98943.75
2022-09-23T05:11:22.503Z,98945.59
2022-09-23T05:13:59.105Z,98938.41
2022-09-23T05:16:27.409Z,98943.59
2022-09-23T05:18:54.518Z,98941.09
2022-09-23T05:21:27.470Z,98937.94
2022-09-23T05:23:59.006Z,98938.03
2022-09-23T05:26:28.338Z,98930.88
2022-09-23T05:28:55.780Z,98935.16
2022-09-23T05:31:25.300Z,98941.97
2022-09-23T05:34:03.905Z,98941.19
2022-09-23T05:36:37.573Z,98950.81
2022-09-23T05:39:06.227Z,98947.03
2022-09-23T05:41:34.347Z,98946.44
2022-09-23T05:44:01.856Z,98949.84
2022-09-23T05:46:33.224Z,98941.47
2022-09-23T05:49:03.038Z,98940.53
2022-09-23T05:51:40.206Z,98943.31
2022-09-23T05:54:15.009Z,98942.09
2022-09-23T05:56:41.988Z,98950.75
2022-09-23T05:59:09.104Z,98953.38
2022-09-23T06:01:39.541Z,98947.81
2022-09-23T06:04:12.917Z,98952.59
2022-09-23T06:06:42.421Z,98946.03
2022-09-23T06:09:14.677Z,98944.66
2022-09-23T06:11:42.416Z,98949.47
2022-09-23T06:14:13.014Z,98951.06
2022-09-23T06:16:40.538Z,98951.25
2022-09-23T06:19:08.435Z,98951.69
2022-09-23T06:21:39.960Z,98945.28
2022-09-23T06:24:09.257Z,98940.50
2022-09-23T06:26:37.865Z,98935.28
2022-09-23T06:29:11.510Z,98941.66
2022-09-23T06:31:41.199Z,98943.28
2022-09-23T06:34:13.260Z,98945.84
2022-09-23T06:36:46.184Z,98946.25
2022-09-23T06:39:14.956Z,98947.03
2022-09-23T06:41:42.081Z,98944.41
2022-09-23T06:44:08.932Z,98945.59
2022-09-23T06:46:46.697Z,98945.16
2022-09-23T06:49:21.887Z,98940.28
2022-09-23T06:51:49.293Z,98939.66
2022-09-23T06:54:16.435Z,98927.97
2022-09-23T06:56:45.107Z,98932.06
2022-09-23T06:59:13.205Z,98929.78
2022-09-23T07:01:40.275Z,98930.72
2022-09-23T07:04:08.026Z,98930.81
2022-09-23T07:06:34.783Z,98929.81
2022-09-23T07:09:01.703Z,98922.03
2022-09-23T07:11:29.786Z,98901.66
2022-09-23T07:14:00.169Z,98893.69
2022-09-23T07:19:08.300Z,98892.44
2022-09-23T07:25:07.907Z,98889.47
2022-09-23T07:27:35.375Z,98893.50
2022-09-23T07:30:02.424Z,98890.50
2022-09-23T07:32:49.325Z,98887.28
2022-09-23T07:35:29.854Z,98885.91
2022-09-23T07:37:56.803Z,98883.28
2022-09-23T07:40:26.516Z,98884.94
2022-09-23T07:42:54.488Z,98881.72
2022-09-23T07:45:22.288Z,98882.19
2022-09-23T07:47:50.362Z,98894.03
2022-09-23T07:50:20.474Z,98893.78
2022-09-23T07:52:47.697Z,98893.81
2022-09-23T07:55:20.810Z,98891.84
2022-09-23T07:57:47.941Z,98898.50
2022-09-23T08:00:15.163Z,98892.34
2022-09-23T08:02:42.050Z,98881.22
2022-09-23T08:05:11.717Z,98888.09
2022-09-23T08:07:38.497Z,98881.00
2022-09-23T08:10:05.735Z,98872.78
2022-09-23T08:12:35.569Z,98873.38
2022-09-23T08:15:03.180Z,98875.69
2022-09-23T08:17:34.331Z,98870.44
2022-09-23T08:20:01.773Z,98868.53
2022-09-23T08:22:28.611Z,98862.94
2022-09-23T08:24:56.717Z,98870.69
2022-09-23T08:27:26.910Z,98869.00
2022-09-23T08:29:54.926Z,98863.47
2022-09-23T08:32:24.935Z,98864.31
2022-09-23T08:34:51.807Z,98859.88
2022-09-23T08:37:18.655Z,98867.34
2022-09-23T08:39:45.726Z,98863.44
2022-09-23T08:42:22.384Z,98865.69
2022-09-23T08:44:57.344Z,98859.50
2022-09-23T08:47:31.661Z,98861.97
2022-09-23T08:50:09.182Z,98863.50
2022-09-23T08:53:05.824Z,98865.03
2022-09-23T08:55:32.605Z,98858.72
2022-09-23T08:58:38.137Z,98855.16
2022-09-23T09:04:45.305Z,98840.00
2022-09-23T09:07:37.867Z,98839.88
2022-09-23T09:10:18.963Z,98837.63
2022-09-23T09:13:08.084Z,98836.59
2022-09-23T09:16:16.084Z,98837.22
2022-09-23T09:19:15.886Z,98836.91
2022-09-23T09:21:46.490Z,98837.03
2022-09-23T09:24:19.956Z,98825.34
2022-09-23T09:26:46.726Z,98814.34
2022-09-23T09:29:41.619Z,98826.66
2022-09-23T09:32:39.005Z,98824.09
2022-09-23T09:35:18.879Z,98826.97
2022-09-23T09:37:48.459Z,98820.50
2022-09-23T09:40:17.561Z,98820.09
2022-09-23T09:42:49.791Z,98815.00
2022-09-23T09:46:05.905Z,98801.72
2022-09-23T09:48:43.402Z,98798.16
2022-09-23T09:51:22.284Z,98793.72
2022-09-23T09:53:52.609Z,98805.13
2022-09-23T09:56:33.494Z,98794.78
2022-09-23T09:59:08.502Z,98795.31
2022-09-23T10:01:36.617Z,98794.44
2022-09-23T10:04:19.955Z,98788.13
2022-09-23T10:07:12.392Z,98788.53
2022-09-23T10:09:43.156Z,98790.19
2022-09-23T10:12:21.401Z,98782.44
2022-09-23T10:14:51.988Z,98780.19
2022-09-23T10:17:24.566Z,98775.16
2022-09-23T10:20:00.900Z,98779.69
2022-09-23T10:22:45.441Z,98780.75
2022-09-23T10:25:30.673Z,98779.09
2022-09-23T10:28:03.607Z,98772.94
2022-09-23T10:30:39.152Z,98777.66
2022-09-23T10:33:28.177Z,98776.50
2022-09-23T10:35:57.604Z,98767.44
2022-09-23T10:38:25.172Z,98764.31
2022-09-23T10:41:12.424Z,98768.91
2022-09-23T10:44:17.381Z,98764.69
2022-09-23T10:47:00.557Z,98764.09
2022-09-23T10:49:53.278Z,98761.28
2022-09-23T10:52:49.225Z,98750.63
2022-09-23T10:55:18.649Z,98749.72
2022-09-23T10:57:45.433Z,98747.53
2022-09-23T11:00:27.894Z,98746.75
2022-09-23T11:03:14.895Z,98740.84
2022-09-23T11:06:04.156Z,98735.50
2022-09-23T11:09:00.420Z,98737.41
2022-09-23T11:11:51.421Z,98724.53
2022-09-23T11:15:10.160Z,98728.78
2022-09-23T11:18:01.215Z,98730.41
2022-09-23T11:21:07.273Z,98727.84
2022-09-23T11:23:40.876Z,98724.94
2022-09-23T11:26:33.155Z,98727.47
2022-09-23T11:29:29.257Z,98723.81
2022-09-23T11:32:10.410Z,98711.84
2022-09-23T11:34:45.925Z,98713.91
2022-09-23T11:37:19.088Z,98705.50
2022-09-23T11:40:01.548Z,98698.69
2022-09-23T11:42:35.079Z,98692.72
2022-09-23T11:45:09.893Z,98692.75
2022-09-23T11:47:45.945Z,98690.94
2022-09-23T11:50:44.614Z,98688.31
2022-09-23T11:53:22.613Z,98686.78
2022-09-23T11:55:58.397Z,98689.00
2022-09-23T12:01:29.927Z,98684.38
2022-09-23T12:04:13.854Z,98680.63
2022-09-23T12:07:07.780Z,98676.47
2022-09-23T12:09:58.421Z,98675.25
2022-09-23T12:12:48.777Z,98673.44
2022-09-23T12:15:30.374Z,98666.00
2022-09-23T12:18:05.810Z,98660.91
2022-09-23T12:21:01.614Z,98654.75
2022-09-23T12:23:46.337Z,98655.69
2022-09-23T12:26:23.156Z,98647.66
2022-09-23T12:28:52.990Z,98650.53
2022-09-23T12:31:30.557Z,98648.88
2022-09-23T12:34:00.423Z,98644.16
2022-09-23T12:36:34.696Z,98643.44
2022-09-23T12:39:13.936Z,98650.31
2022-09-23T12:41:43.916Z,98643.63
2022-09-23T12:44:28.700Z,98641.03
2022-09-23T12:47:28.134Z,98634.47
2022-09-23T12:49:56.845Z,98622.09
2022-09-23T12:52:33.666Z,98623.13
2022-09-23T12:55:24.648Z,98616.88
2022-09-23T12:57:51.256Z,98617.47
2022-09-23T13:00:25.966Z,98617.38
2022-09-23T13:03:18.347Z,98619.91
2022-09-23T13:06:11.948Z,98616.03
2022-09-23T13:08:41.811Z,98611.56
2022-09-23T13:11:25.125Z,98610.69
2022-09-23T13:13:52.469Z,98614.69
2022-09-23T13:16:33.434Z,98605.59
2022-09-23T13:19:43.095Z,98604.47
2022-09-23T13:22:11.268Z,98591.69
2022-09-23T13:24:45.410Z,98585.41
2022-09-23T13:27:17.675Z,98590.44
2022-09-23T13:29:51.941Z,98587.44
2022-09-23T13:32:20.886Z,98575.38
2022-09-23T13:34:58.537Z,98572.16
2022-09-23T13:37:41.369Z,98573.78
2022-09-23T13:40:17.441Z,98566.94
2022-09-23T13:42:47.383Z,98567.66
2022-09-23T13:45:20.999Z,98568.78
2022-09-23T13:47:49.669Z,98557.53
2022-09-23T13:50:22.805Z,98551.03
2022-09-23T13:52:58.073Z,98554.31
2022-09-23T13:55:33.802Z,98556.81
2022-09-23T13:58:04.356Z,98552.31
2022-09-23T14:00:36.254Z,98559.13
2022-09-23T14:03:16.303Z,98552.09
2022-09-23T14:05:43.970Z,98556.63
2022-09-23T14:08:10.886Z,98547.69
2022-09-23T14:10:42.964Z,98553.59
2022-09-23T14:13:17.151Z,98545.81
2022-09-23T14:15:45.258Z,98545.56
2022-09-23T14:18:26.373Z,98543.94
2022-09-23T14:20:53.012Z,98547.00
2022-09-23T14:23:19.937Z,98545.25
2022-09-23T14:25:47.698Z,98544.09
2022-09-23T14:28:17.161Z,98542.34
2022-09-23T14:30:46.393Z,98536.63
2022-09-23T14:33:20.030Z,98535.91
2022-09-23T14:35:53.757Z,98533.75
2022-09-23T14:38:46.195Z,98533.69
2022-09-23T14:41:22.117Z,98532.63
2022-09-23T14:43:55.224Z,98525.66
2022-09-23T14:46:24.800Z,98525.75
2022-09-23T14:49:16.653Z,98525.38
2022-09-23T14:51:55.999Z,98526.41
2022-09-23T14:54:40.415Z,98522.50
2022-09-23T14:57:22.197Z,98517.19
2022-09-23T14:59:56.111Z,98514.06
2022-09-23T15:02:37.793Z,98514.63
2022-09-23T15:05:10.491Z,98510.78
2022-09-23T15:07:39.106Z,98508.56
2022-09-23T15:10:33.264Z,98496.69
2022-09-23T15:13:27.582Z,98495.50
2022-09-23T15:15:55.904Z,98494.22
2022-09-23T15:18:26.730Z,98494.38
2022-09-23T15:21:01.168Z,98500.47
2022-09-23T15:23:51.882Z,98501.59
2022-09-23T15:26:21.475Z,98492.75
2022-09-23T15:28:50.306Z,98498.34
2022-09-23T15:31:18.920Z,98489.72
2022-09-23T15:33:49.571Z,98490.31
2022-09-23T15:36:26.137Z,98489.34
2022-09-23T15:38:53.883Z,98485.75
2022-09-23T15:41:24.197Z,98485.94
2022-09-23T15:43:51.613Z,98477.94
2022-09-23T15:46:25.990Z,98480.22
2022-09-23T15:49:09.713Z,98482.88
2022-09-23T15:51:45.576Z,98484.72
2022-09-23T15:54:12.611Z,98486.94
2022-09-23T15:56:40.415Z,98485.88
2022-09-23T15:59:07.438Z,98488.31
2022-09-23T16:01:36.804Z,98493.94
2022-09-23T16:04:05.279Z,98482.25
2022-09-23T16:06:36.071Z,98483.19
2022-09-23T16:09:02.924Z,98479.44
2022-09-23T16:11:33.981Z,98480.97
2022-09-23T16:14:01.413Z,98482.81
2022-09-23T16:16:29.576Z,98475.50
2022-09-23T16:18:58.207Z,98473.94
2022-09-23T16:21:27.657Z,98480.69
2022-09-23T16:23:56.016Z,98481.41
2022-09-23T16:26:28.205Z,98476.25
2022-09-23T16:28:56.905Z,98473.72
2022-09-23T16:31:25.729Z,98464.47
2022-09-23T16:33:53.387Z,98461.31
2022-09-23T16:36:35.843Z,98464.75
2022-09-23T16:39:06.097Z,98460.47
2022-09-23T16:41:33.344Z,98460.50
2022-09-23T16:44:02.147Z,98462.41
2022-09-23T16:46:35.193Z,98460.94
2022-09-23T16:49:02.341Z,98457.25
2022-09-23T16:51:35.700Z,98458.88
2022-09-23T16:54:06.428Z,98457.91
2022-09-23T16:56:33.267Z,98461.91
2022-09-23T16:59:01.436Z,98471.78
2022-09-23T17:01:47.669Z,98464.44
2022-09-23T17:04:17.037Z,98458.66
2022-09-23T17:06:52.168Z,98458.81
2022-09-23T17:09:21.316Z,98458.13
2022-09-23T17:12:05.311Z,98456.38
2022-09-23T17:14:32.001Z,98455.38
2022-09-23T17:16:59.151Z,98453.84
2022-09-23T17:19:25.884Z,98454.19
2022-09-23T17:21:53.613Z,98454.22
2022-09-23T17:24:20.309Z,98462.38
2022-09-23T17:26:52.015Z,98462.41
2022-09-23T17:29:19.770Z,98457.44
2022-09-23T17:31:46.823Z,98457.19
2022-09-23T17:34:14.207Z,98463.50
2022-09-23T17:36:41.502Z,98461.41
2022-09-23T17:39:08.322Z,98461.13
2022-09-23T17:41:35.186Z,98464.31
2022-09-23T17:44:02.082Z,98466.94
2022-09-23T17:46:30.273Z,98463.81
2022-09-23T17:48:57.211Z,98463.03
2022-09-23T17:51:25.632Z,98469.34
2022-09-23T17:53:52.818Z,98463.56
2022-09-23T17:56:21.042Z,98474.31
2022-09-23T17:58:49.607Z,98471.38
2022-09-23T18:01:24.183Z,98474.50
2022-09-23T18:03:59.384Z,98476.06
2022-09-23T18:06:35.584Z,98474.47
2022-09-23T18:09:04.425Z,98477.88
2022-09-23T18:11:36.860Z,98477.63
2022-09-23T18:14:18.730Z,98478.69
2022-09-23T18:16:47.976Z,98479.47
2022-09-23T18:19:17.158Z,98472.66
2022-09-23T18:21:46.830Z,98469.50
2022-09-23T18:24:33.124Z,98466.84
2022-09-23T18:27:01.213Z,98462.63
2022-09-23T18:29:28.778Z,98466.75
2022-09-23T18:31:55.812Z,98465.38
2022-09-23T18:34:23.142Z,98455.06
2022-09-23T18:36:56.131Z,98447.09
2022-09-23T18:39:23.044Z,98458.88
2022-09-23T18:41:49.666Z,98465.94
2022-09-23T18:44:24.442Z,98464.31
2022-09-23T18:46:53.800Z,98464.00
2022-09-23T18:49:39.008Z,98467.34
2022-09-23T18:52:05.701Z,98474.34
2022-09-23T18:54:32.462Z,98478.78
2022-09-23T18:57:00.709Z,98474.81
2022-09-23T18:59:29.315Z,98470.44
2022-09-23T19:01:57.035Z,98475.63
2022-09-23T19:04:26.239Z,98476.75
2022-09-23T19:06:56.545Z,98469.38
2022-09-23T19:09:24.324Z,98466.91
2022-09-23T19:11:52.747Z,98469.66
2022-09-23T19:14:20.054Z,98467.78
2022-09-23T19:16:49.297Z,98467.13
2022-09-23T19:19:16.279Z,98467.88
2022-09-23T19:21:43.353Z,98472.09
2022-09-23T19:24:14.416Z,98472.25
2022-09-23T19:26:42.104Z,98471.03
2022-09-23T19:29:14.712Z,98476.09
2022-09-23T19:31:42.459Z,98474.28
2022-09-23T19:34:18.474Z,98474.28
2022-09-23T19:36:47.729Z,98481.00
2022-09-23T19:39:19.977Z,98479.75
2022-09-23T19:41:47.131Z,98475.25
2022-09-23T19:44:17.141Z,98479.75
2022-09-23T19:46:45.912Z,98481.06
2022-09-23T19:49:13.040Z,98475.53
2022-09-23T19:51:40.292Z,98474.22
2022-09-23T19:54:07.944Z,98473.44
2022-09-23T19:56:35.789Z,98467.94
2022-09-23T19:59:04.615Z,98470.75
2022-09-23T20:01:32.140Z,98473.22
2022-09-23T20:03:59.857Z,98479.72
2022-09-23T20:06:42.988Z,98476.59
2022-09-23T20:09:10.007Z,98471.84
2022-09-23T20:11:38.971Z,98472.84
2022-09-23T20:14:06.566Z,98471.28
2022-09-23T20:16:37.270Z,98475.28
2022-09-23T20:19:05.572Z,98466.34
2022-09-23T20:21:33.561Z,98477.44
2022-09-23T20:24:00.931Z,98470.47
2022-09-23T20:26:48.643Z,98468.56
2022-09-23T20:29:15.225Z,98464.66
2022-09-23T20:31:42.181Z,98464.16
2022-09-23T20:34:10.977Z,98454.06
2022-09-23T20:36:40.882Z,98454.06
2022-09-23T20:39:09.711Z,98450.31
2022-09-23T20:41:37.835Z,98457.03
2022-09-23T20:44:07.712Z,98454.84
2022-09-23T20:46:34.693Z,98458.25
2022-09-23T20:49:02.075Z,98459.56
2022-09-23T20:51:29.491Z,98455.34
2022-09-23T20:53:56.008Z,98464.31
2022-09-23T20:56:23.444Z,98462.41
2022-09-23T20:58:52.657Z,98462.25
2022-09-23T21:01:19.373Z,98461.84
2022-09-23T21:03:48.829Z,98457.84
2022-09-23T21:06:17.426Z,98464.44
2022-09-23T21:08:44.714Z,98460.81
2022-09-23T21:11:14.895Z,98462.91
2022-09-23T21:13:46.935Z,98455.28
2022-09-23T21:16:16.264Z,98452.81
2022-09-23T21:18:48.883Z,98449.09
2022-09-23T21:21:17.430Z,98454.13
2022-09-23T21:23:44.357Z,98448.00
2022-09-23T21:26:18.202Z,98448.47
2022-09-23T21:28:51.085Z,98451.56
2022-09-23T21:31:30.488Z,98457.59
2022-09-23T21:34:19.272Z,98457.28
2022-09-23T21:36:48.079Z,98448.66
2022-09-23T21:39:15.080Z,98447.13
2022-09-23T21:41:42.483Z,98445.75
2022-09-23T21:44:09.235Z,98450.03
2022-09-23T21:46:39.647Z,98450.16
2022-09-23T21:49:06.447Z,98449.09
2022-09-23T21:51:38.598Z,98440.00
2022-09-23T21:54:06.160Z,98442.22
2022-09-23T21:56:37.861Z,98442.25
2022-09-23T21:59:07.861Z,98443.13
2022-09-23T22:01:37.205Z,98449.69
2022-09-23T22:04:14.413Z,98448.66
2022-09-23T22:06:42.488Z,98439.28
2022-09-23T22:09:13.761Z,98442.06
2022-09-23T22:11:59.534Z,98434.38
2022-09-23T22:14:26.750Z,98434.22
2022-09-23T22:17:00.445Z,98438.66
2022-09-23T22:19:34.844Z,98432.16
2022-09-23T22:22:05.783Z,98430.09
2022-09-23T22:24:32.805Z,98424.22
2022-09-23T22:26:59.888Z,98423.81
2022-09-23T22:29:45.139Z,98414.22
2022-09-23T22:32:30.820Z,98414.84
2022-09-23T22:34:59.928Z,98414.06
2022-09-23T22:37:30.669Z,98411.28
2022-09-23T22:39:58.448Z,98424.63
2022-09-23T22:42:26.449Z,98429.06
2022-09-23T22:44:56.811Z,98432.88
2022-09-23T22:47:24.646Z,98429.06
2022-09-23T22:49:55.018Z,98429.72
2022-09-23T22:52:24.773Z,98431.13
2022-09-23T22:54:55.515Z,98426.53
2022-09-23T22:57:24.434Z,98423.19
2022-09-23T22:59:53.404Z,98423.72
2022-09-23T23:02:24.701Z,98423.19
2022-09-23T23:04:52.186Z,98431.38
2022-09-23T23:07:21.508Z,98434.38
2022-09-23T23:09:52.676Z,98432.75
2022-09-23T23:12:21.285Z,98427.81
2022-09-23T23:14:50.900Z,98429.00
2022-09-23T23:17:19.584Z,98431.69
2022-09-23T23:19:47.785Z,98421.84
2022-09-23T23:22:14.776Z,98421.22
2022-09-23T23:24:42.143Z,98422.09
2022-09-23T23:27:12.833Z,98421.28
2022-09-23T23:29:40.055Z,98426.72
2022-09-23T23:32:07.795Z,98417.13
2022-09-23T23:34:34.480Z,98418.63
2022-09-23T23:37:02.279Z,98412.97
2022-09-23T23:39:29.754Z,98411.66
2022-09-23T23:41:58.547Z,98414.34
2022-09-23T23:44:27.629Z,98413.31
2022-09-23T23:46:55.443Z,98417.44
2022-09-23T23:49:23.169Z,98412.16
2022-09-23T23:51:50.617Z,98409.53
2022-09-23T23:54:17.288Z,98406.13
2022-09-23T23:56:44.390Z,98405.22
2022-09-23T23:59:11.568Z,98397.31
